sensor_id;sensor_type;location;lat;lon;timestamp;P1;durP1;ratioP1;P2;durP2;ratioP2
3159;SDS011;1591;51.486;7.146;2022-08-19T00:00:39;7.63;;;6.30;;
3159;SDS011;1591;51.486;7.146;2022-08-19T00:03:06;6.83;;;5.90;;
3159;SDS011;1591;51.486;7.146;2022-08-19T00:05:34;10.90;;;6.67;;
3159;SDS011;1591;51.486;7.146;2022-08-19T00:08:02;11.23;;;6.90;;
3159;SDS011;1591;51.486;7.146;2022-08-19T00:10:29;7.67;;;6.30;;
3159;SDS011;1591;51.486;7.146;2022-08-19T00:12:57;7.00;;;6.20;;
3159;SDS011;1591;51.486;7.146;2022-08-19T00:15:25;8.40;;;6.30;;
3159;SDS011;1591;51.486;7.146;2022-08-19T00:17:52;6.83;;;6.23;;
3159;SDS011;1591;51.486;7.146;2022-08-19T00:20:20;8.07;;;6.90;;
3159;SDS011;1591;51.486;7.146;2022-08-19T00:22:48;7.50;;;6.50;;
3159;SDS011;1591;51.486;7.146;2022-08-19T00:25:16;11.70;;;7.03;;
3159;SDS011;1591;51.486;7.146;2022-08-19T00:27:44;11.07;;;7.33;;
3159;SDS011;1591;51.486;7.146;2022-08-19T00:30:12;7.63;;;6.80;;
3159;SDS011;1591;51.486;7.146;2022-08-19T00:32:41;7.90;;;7.20;;
3159;SDS011;1591;51.486;7.146;2022-08-19T00:35:09;10.30;;;6.63;;
3159;SDS011;1591;51.486;7.146;2022-08-19T00:37:36;7.50;;;6.80;;
3159;SDS011;1591;51.486;7.146;2022-08-19T00:40:08;8.20;;;6.80;;
3159;SDS011;1591;51.486;7.146;2022-08-19T00:42:38;11.50;;;7.50;;
3159;SDS011;1591;51.486;7.146;2022-08-19T00:45:09;7.90;;;7.10;;
3159;SDS011;1591;51.486;7.146;2022-08-19T00:47:39;8.70;;;7.87;;
3159;SDS011;1591;51.486;7.146;2022-08-19T00:50:08;8.33;;;7.63;;
3159;SDS011;1591;51.486;7.146;2022-08-19T00:52:37;11.10;;;8.07;;
3159;SDS011;1591;51.486;7.146;2022-08-19T00:55:10;9.33;;;7.13;;
3159;SDS011;1591;51.486;7.146;2022-08-19T00:57:46;8.17;;;7.40;;
3159;SDS011;1591;51.486;7.146;2022-08-19T01:00:19;12.30;;;7.97;;
3159;SDS011;1591;51.486;7.146;2022-08-19T01:02:49;8.60;;;7.63;;
3159;SDS011;1591;51.486;7.146;2022-08-19T01:05:20;8.70;;;7.70;;
3159;SDS011;1591;51.486;7.146;2022-08-19T01:07:53;7.93;;;7.07;;
3159;SDS011;1591;51.486;7.146;2022-08-19T01:10:23;7.60;;;6.90;;
3159;SDS011;1591;51.486;7.146;2022-08-19T01:12:52;12.30;;;8.30;;
3159;SDS011;1591;51.486;7.146;2022-08-19T01:15:23;9.13;;;8.00;;
3159;SDS011;1591;51.486;7.146;2022-08-19T01:17:58;9.00;;;8.10;;
3159;SDS011;1591;51.486;7.146;2022-08-19T01:20:30;9.23;;;7.83;;
3159;SDS011;1591;51.486;7.146;2022-08-19T01:23:00;8.90;;;8.00;;
3159;SDS011;1591;51.486;7.146;2022-08-19T01:25:29;9.57;;;8.57;;
3159;SDS011;1591;51.486;7.146;2022-08-19T01:28:12;10.70;;;8.60;;
3159;SDS011;1591;51.486;7.146;2022-08-19T01:30:44;10.90;;;9.33;;
3159;SDS011;1591;51.486;7.146;2022-08-19T01:33:12;16.07;;;9.90;;
3159;SDS011;1591;51.486;7.146;2022-08-19T01:35:39;12.90;;;9.13;;
3159;SDS011;1591;51.486;7.146;2022-08-19T01:38:10;11.57;;;9.70;;
3159;SDS011;1591;51.486;7.146;2022-08-19T01:40:47;12.40;;;10.23;;
3159;SDS011;1591;51.486;7.146;2022-08-19T01:43:14;11.50;;;10.00;;
3159;SDS011;1591;51.486;7.146;2022-08-19T01:45:44;11.17;;;8.47;;
3159;SDS011;1591;51.486;7.146;2022-08-19T01:48:12;11.30;;;8.40;;
3159;SDS011;1591;51.486;7.146;2022-08-19T01:50:41;11.97;;;8.83;;
3159;SDS011;1591;51.486;7.146;2022-08-19T01:53:10;9.53;;;8.53;;
3159;SDS011;1591;51.486;7.146;2022-08-19T01:55:39;8.97;;;8.07;;
3159;SDS011;1591;51.486;7.146;2022-08-19T01:58:08;11.17;;;7.90;;
3159;SDS011;1591;51.486;7.146;2022-08-19T02:00:44;10.43;;;9.00;;
3159;SDS011;1591;51.486;7.146;2022-08-19T02:03:12;10.20;;;8.87;;
3159;SDS011;1591;51.486;7.146;2022-08-19T02:05:39;10.07;;;9.03;;
3159;SDS011;1591;51.486;7.146;2022-08-19T02:08:08;10.30;;;9.10;;
3159;SDS011;1591;51.486;7.146;2022-08-19T02:10:38;11.50;;;9.00;;
3159;SDS011;1591;51.486;7.146;2022-08-19T02:13:08;8.60;;;7.80;;
3159;SDS011;1591;51.486;7.146;2022-08-19T02:15:37;9.50;;;8.60;;
3159;SDS011;1591;51.486;7.146;2022-08-19T02:18:04;11.40;;;9.13;;
3159;SDS011;1591;51.486;7.146;2022-08-19T02:20:33;9.60;;;8.70;;
3159;SDS011;1591;51.486;7.146;2022-08-19T02:23:01;10.37;;;8.43;;
3159;SDS011;1591;51.486;7.146;2022-08-19T02:25:29;14.83;;;9.40;;
3159;SDS011;1591;51.486;7.146;2022-08-19T02:27:56;10.20;;;9.20;;
3159;SDS011;1591;51.486;7.146;2022-08-19T02:30:24;14.43;;;9.07;;
3159;SDS011;1591;51.486;7.146;2022-08-19T02:32:51;12.07;;;9.50;;
3159;SDS011;1591;51.486;7.146;2022-08-19T02:35:19;11.27;;;9.10;;
3159;SDS011;1591;51.486;7.146;2022-08-19T02:37:47;9.63;;;8.73;;
3159;SDS011;1591;51.486;7.146;2022-08-19T02:40:34;10.00;;;8.80;;
3159;SDS011;1591;51.486;7.146;2022-08-19T02:43:03;8.83;;;7.93;;
3159;SDS011;1591;51.486;7.146;2022-08-19T02:45:33;10.87;;;8.97;;
3159;SDS011;1591;51.486;7.146;2022-08-19T02:48:02;10.13;;;9.13;;
3159;SDS011;1591;51.486;7.146;2022-08-19T02:50:30;9.23;;;8.20;;
3159;SDS011;1591;51.486;7.146;2022-08-19T02:52:57;12.33;;;8.60;;
3159;SDS011;1591;51.486;7.146;2022-08-19T02:55:24;9.30;;;8.27;;
3159;SDS011;1591;51.486;7.146;2022-08-19T02:57:52;9.60;;;8.70;;
3159;SDS011;1591;51.486;7.146;2022-08-19T03:00:20;12.27;;;8.70;;
3159;SDS011;1591;51.486;7.146;2022-08-19T03:02:49;9.43;;;8.40;;
3159;SDS011;1591;51.486;7.146;2022-08-19T03:05:16;9.50;;;8.50;;
3159;SDS011;1591;51.486;7.146;2022-08-19T03:07:43;10.97;;;9.27;;
3159;SDS011;1591;51.486;7.146;2022-08-19T03:10:11;10.10;;;9.07;;
3159;SDS011;1591;51.486;7.146;2022-08-19T03:12:41;12.40;;;10.33;;
3159;SDS011;1591;51.486;7.146;2022-08-19T03:15:10;11.30;;;9.53;;
3159;SDS011;1591;51.486;7.146;2022-08-19T03:17:38;10.43;;;9.27;;
3159;SDS011;1591;51.486;7.146;2022-08-19T03:20:05;12.63;;;9.33;;
3159;SDS011;1591;51.486;7.146;2022-08-19T03:22:33;12.00;;;10.03;;
3159;SDS011;1591;51.486;7.146;2022-08-19T03:25:00;10.23;;;9.07;;
3159;SDS011;1591;51.486;7.146;2022-08-19T03:27:29;11.67;;;9.23;;
3159;SDS011;1591;51.486;7.146;2022-08-19T03:29:56;11.20;;;9.70;;
3159;SDS011;1591;51.486;7.146;2022-08-19T03:32:25;13.73;;;9.70;;
3159;SDS011;1591;51.486;7.146;2022-08-19T03:34:53;13.00;;;9.97;;
3159;SDS011;1591;51.486;7.146;2022-08-19T03:37:20;16.57;;;9.53;;
3159;SDS011;1591;51.486;7.146;2022-08-19T03:39:48;10.67;;;9.67;;
3159;SDS011;1591;51.486;7.146;2022-08-19T03:42:15;11.50;;;9.23;;
3159;SDS011;1591;51.486;7.146;2022-08-19T03:44:42;14.30;;;9.77;;
3159;SDS011;1591;51.486;7.146;2022-08-19T03:47:12;13.17;;;9.33;;
3159;SDS011;1591;51.486;7.146;2022-08-19T03:49:45;11.17;;;9.63;;
3159;SDS011;1591;51.486;7.146;2022-08-19T03:52:12;10.63;;;9.27;;
3159;SDS011;1591;51.486;7.146;2022-08-19T03:54:40;10.60;;;9.53;;
3159;SDS011;1591;51.486;7.146;2022-08-19T03:57:08;10.67;;;9.07;;
3159;SDS011;1591;51.486;7.146;2022-08-19T03:59:35;10.90;;;9.30;;
3159;SDS011;1591;51.486;7.146;2022-08-19T04:02:05;10.57;;;9.67;;
3159;SDS011;1591;51.486;7.146;2022-08-19T04:04:35;9.93;;;8.93;;
3159;SDS011;1591;51.486;7.146;2022-08-19T04:07:05;12.77;;;9.60;;
3159;SDS011;1591;51.486;7.146;2022-08-19T04:09:33;11.10;;;9.63;;
3159;SDS011;1591;51.486;7.146;2022-08-19T04:12:01;15.63;;;10.20;;
3159;SDS011;1591;51.486;7.146;2022-08-19T04:14:31;13.20;;;9.90;;
3159;SDS011;1591;51.486;7.146;2022-08-19T04:17:00;13.60;;;9.70;;
3159;SDS011;1591;51.486;7.146;2022-08-19T04:19:30;14.30;;;10.80;;
3159;SDS011;1591;51.486;7.146;2022-08-19T04:21:57;27.43;;;11.17;;
3159;SDS011;1591;51.486;7.146;2022-08-19T04:24:26;17.30;;;10.20;;
3159;SDS011;1591;51.486;7.146;2022-08-19T04:26:54;12.23;;;10.93;;
3159;SDS011;1591;51.486;7.146;2022-08-19T04:29:22;12.70;;;11.40;;
3159;SDS011;1591;51.486;7.146;2022-08-19T04:31:53;12.40;;;11.10;;
3159;SDS011;1591;51.486;7.146;2022-08-19T04:34:24;13.50;;;11.20;;
3159;SDS011;1591;51.486;7.146;2022-08-19T04:36:55;16.00;;;10.87;;
3159;SDS011;1591;51.486;7.146;2022-08-19T04:39:24;14.60;;;11.83;;
3159;SDS011;1591;51.486;7.146;2022-08-19T04:42:09;14.90;;;10.50;;
3159;SDS011;1591;51.486;7.146;2022-08-19T04:44:54;12.20;;;10.33;;
3159;SDS011;1591;51.486;7.146;2022-08-19T04:47:25;15.37;;;11.03;;
3159;SDS011;1591;51.486;7.146;2022-08-19T04:49:52;12.67;;;10.67;;
3159;SDS011;1591;51.486;7.146;2022-08-19T04:52:20;13.00;;;10.90;;
3159;SDS011;1591;51.486;7.146;2022-08-19T04:54:48;12.10;;;10.83;;
3159;SDS011;1591;51.486;7.146;2022-08-19T04:57:15;12.43;;;10.83;;
3159;SDS011;1591;51.486;7.146;2022-08-19T04:59:43;12.70;;;11.07;;
3159;SDS011;1591;51.486;7.146;2022-08-19T05:02:10;12.20;;;10.87;;
3159;SDS011;1591;51.486;7.146;2022-08-19T05:04:37;12.80;;;11.50;;
3159;SDS011;1591;51.486;7.146;2022-08-19T05:07:04;12.07;;;10.83;;
3159;SDS011;1591;51.486;7.146;2022-08-19T05:09:32;14.37;;;12.10;;
3159;SDS011;1591;51.486;7.146;2022-08-19T05:12:01;16.03;;;11.07;;
3159;SDS011;1591;51.486;7.146;2022-08-19T05:14:29;12.23;;;11.03;;
3159;SDS011;1591;51.486;7.146;2022-08-19T05:16:57;13.37;;;11.30;;
3159;SDS011;1591;51.486;7.146;2022-08-19T05:19:29;12.87;;;11.57;;
3159;SDS011;1591;51.486;7.146;2022-08-19T05:22:13;14.67;;;11.10;;
3159;SDS011;1591;51.486;7.146;2022-08-19T05:25:06;13.63;;;11.27;;
3159;SDS011;1591;51.486;7.146;2022-08-19T05:27:38;12.30;;;11.00;;
3159;SDS011;1591;51.486;7.146;2022-08-19T05:30:09;13.33;;;11.17;;
3159;SDS011;1591;51.486;7.146;2022-08-19T05:32:37;14.60;;;12.50;;
3159;SDS011;1591;51.486;7.146;2022-08-19T05:35:06;16.50;;;12.20;;
3159;SDS011;1591;51.486;7.146;2022-08-19T05:37:34;17.20;;;12.20;;
3159;SDS011;1591;51.486;7.146;2022-08-19T05:40:02;20.87;;;12.63;;
3159;SDS011;1591;51.486;7.146;2022-08-19T05:42:29;13.53;;;12.10;;
3159;SDS011;1591;51.486;7.146;2022-08-19T05:44:59;13.13;;;11.83;;
3159;SDS011;1591;51.486;7.146;2022-08-19T05:47:26;14.50;;;12.10;;
3159;SDS011;1591;51.486;7.146;2022-08-19T05:49:53;14.37;;;12.20;;
3159;SDS011;1591;51.486;7.146;2022-08-19T05:52:21;15.83;;;12.70;;
3159;SDS011;1591;51.486;7.146;2022-08-19T05:54:48;22.13;;;12.17;;
3159;SDS011;1591;51.486;7.146;2022-08-19T05:57:16;14.73;;;13.10;;
3159;SDS011;1591;51.486;7.146;2022-08-19T05:59:43;14.30;;;12.30;;
3159;SDS011;1591;51.486;7.146;2022-08-19T06:02:12;16.63;;;13.80;;
3159;SDS011;1591;51.486;7.146;2022-08-19T06:04:39;15.80;;;13.07;;
3159;SDS011;1591;51.486;7.146;2022-08-19T06:07:07;15.80;;;12.30;;
3159;SDS011;1591;51.486;7.146;2022-08-19T06:09:35;16.63;;;12.20;;
3159;SDS011;1591;51.486;7.146;2022-08-19T06:12:03;13.00;;;11.70;;
3159;SDS011;1591;51.486;7.146;2022-08-19T06:14:32;16.60;;;12.77;;
3159;SDS011;1591;51.486;7.146;2022-08-19T06:17:02;14.83;;;13.30;;
3159;SDS011;1591;51.486;7.146;2022-08-19T06:19:33;14.53;;;13.00;;
3159;SDS011;1591;51.486;7.146;2022-08-19T06:22:01;14.77;;;12.50;;
3159;SDS011;1591;51.486;7.146;2022-08-19T06:24:29;14.77;;;12.40;;
3159;SDS011;1591;51.486;7.146;2022-08-19T06:26:57;21.93;;;12.40;;
3159;SDS011;1591;51.486;7.146;2022-08-19T06:29:30;15.50;;;12.23;;
3159;SDS011;1591;51.486;7.146;2022-08-19T06:31:58;17.40;;;13.87;;
3159;SDS011;1591;51.486;7.146;2022-08-19T06:34:29;16.63;;;13.90;;
3159;SDS011;1591;51.486;7.146;2022-08-19T06:37:00;18.47;;;15.53;;
3159;SDS011;1591;51.486;7.146;2022-08-19T06:39:28;21.90;;;13.83;;
3159;SDS011;1591;51.486;7.146;2022-08-19T06:41:59;18.90;;;14.77;;
3159;SDS011;1591;51.486;7.146;2022-08-19T06:44:32;25.57;;;14.77;;
3159;SDS011;1591;51.486;7.146;2022-08-19T06:47:02;20.23;;;16.20;;
3159;SDS011;1591;51.486;7.146;2022-08-19T06:49:33;18.77;;;15.17;;
3159;SDS011;1591;51.486;7.146;2022-08-19T06:52:01;23.87;;;15.80;;
3159;SDS011;1591;51.486;7.146;2022-08-19T06:54:30;21.40;;;15.17;;
3159;SDS011;1591;51.486;7.146;2022-08-19T06:56:58;18.40;;;15.43;;
3159;SDS011;1591;51.486;7.146;2022-08-19T06:59:28;20.53;;;14.40;;
3159;SDS011;1591;51.486;7.146;2022-08-19T07:01:58;22.20;;;16.57;;
3159;SDS011;1591;51.486;7.146;2022-08-19T07:04:29;21.20;;;16.00;;
3159;SDS011;1591;51.486;7.146;2022-08-19T07:07:04;25.00;;;18.10;;
3159;SDS011;1591;51.486;7.146;2022-08-19T07:09:35;21.10;;;17.40;;
3159;SDS011;1591;51.486;7.146;2022-08-19T07:12:04;33.23;;;18.20;;
3159;SDS011;1591;51.486;7.146;2022-08-19T07:14:35;26.90;;;19.27;;
3159;SDS011;1591;51.486;7.146;2022-08-19T07:17:04;32.37;;;16.97;;
3159;SDS011;1591;51.486;7.146;2022-08-19T07:19:38;24.57;;;18.00;;
3159;SDS011;1591;51.486;7.146;2022-08-19T07:22:08;27.60;;;17.47;;
3159;SDS011;1591;51.486;7.146;2022-08-19T07:24:36;21.50;;;16.63;;
3159;SDS011;1591;51.486;7.146;2022-08-19T07:27:05;24.00;;;17.03;;
3159;SDS011;1591;51.486;7.146;2022-08-19T07:29:35;24.60;;;15.93;;
3159;SDS011;1591;51.486;7.146;2022-08-19T07:32:05;23.63;;;16.10;;
3159;SDS011;1591;51.486;7.146;2022-08-19T07:34:34;20.47;;;15.40;;
3159;SDS011;1591;51.486;7.146;2022-08-19T07:37:04;21.43;;;16.07;;
3159;SDS011;1591;51.486;7.146;2022-08-19T07:39:34;23.70;;;15.03;;
3159;SDS011;1591;51.486;7.146;2022-08-19T07:42:03;17.00;;;13.80;;
3159;SDS011;1591;51.486;7.146;2022-08-19T07:44:35;20.97;;;15.10;;
3159;SDS011;1591;51.486;7.146;2022-08-19T07:47:03;22.57;;;15.77;;
3159;SDS011;1591;51.486;7.146;2022-08-19T07:49:31;18.00;;;15.30;;
3159;SDS011;1591;51.486;7.146;2022-08-19T07:51:59;24.80;;;16.73;;
3159;SDS011;1591;51.486;7.146;2022-08-19T07:54:32;20.00;;;16.27;;
3159;SDS011;1591;51.486;7.146;2022-08-19T07:57:03;25.80;;;17.27;;
3159;SDS011;1591;51.486;7.146;2022-08-19T07:59:31;23.30;;;15.60;;
3159;SDS011;1591;51.486;7.146;2022-08-19T08:02:03;21.33;;;16.87;;
3159;SDS011;1591;51.486;7.146;2022-08-19T08:04:31;22.03;;;17.80;;
3159;SDS011;1591;51.486;7.146;2022-08-19T08:07:16;22.80;;;17.40;;
3159;SDS011;1591;51.486;7.146;2022-08-19T08:10:02;28.53;;;20.63;;
3159;SDS011;1591;51.486;7.146;2022-08-19T08:12:33;27.00;;;20.80;;
3159;SDS011;1591;51.486;7.146;2022-08-19T08:15:07;28.47;;;19.90;;
3159;SDS011;1591;51.486;7.146;2022-08-19T08:17:42;27.60;;;20.90;;
3159;SDS011;1591;51.486;7.146;2022-08-19T08:20:11;25.93;;;19.60;;
3159;SDS011;1591;51.486;7.146;2022-08-19T08:22:42;30.80;;;19.70;;
3159;SDS011;1591;51.486;7.146;2022-08-19T08:25:30;25.53;;;21.93;;
3159;SDS011;1591;51.486;7.146;2022-08-19T08:27:57;28.30;;;22.97;;
3159;SDS011;1591;51.486;7.146;2022-08-19T08:30:27;34.60;;;25.70;;
3159;SDS011;1591;51.486;7.146;2022-08-19T08:32:58;27.23;;;21.60;;
3159;SDS011;1591;51.486;7.146;2022-08-19T08:35:25;42.97;;;23.10;;
3159;SDS011;1591;51.486;7.146;2022-08-19T08:37:53;31.77;;;24.80;;
3159;SDS011;1591;51.486;7.146;2022-08-19T08:40:22;38.40;;;24.53;;
3159;SDS011;1591;51.486;7.146;2022-08-19T08:43:01;33.97;;;25.30;;
3159;SDS011;1591;51.486;7.146;2022-08-19T08:45:36;40.13;;;25.37;;
3159;SDS011;1591;51.486;7.146;2022-08-19T08:48:16;43.67;;;26.90;;
3159;SDS011;1591;51.486;7.146;2022-08-19T08:50:49;33.83;;;25.17;;
3159;SDS011;1591;51.486;7.146;2022-08-19T08:53:20;45.83;;;28.50;;
3159;SDS011;1591;51.486;7.146;2022-08-19T08:55:50;39.37;;;27.07;;
3159;SDS011;1591;51.486;7.146;2022-08-19T08:58:18;37.40;;;29.13;;
3159;SDS011;1591;51.486;7.146;2022-08-19T09:00:54;32.17;;;26.90;;
3159;SDS011;1591;51.486;7.146;2022-08-19T09:03:23;34.60;;;27.77;;
3159;SDS011;1591;51.486;7.146;2022-08-19T09:05:56;40.30;;;31.27;;
3159;SDS011;1591;51.486;7.146;2022-08-19T09:08:32;44.03;;;29.17;;
3159;SDS011;1591;51.486;7.146;2022-08-19T09:11:11;36.47;;;29.33;;
3159;SDS011;1591;51.486;7.146;2022-08-19T09:13:49;31.73;;;27.87;;
3159;SDS011;1591;51.486;7.146;2022-08-19T09:16:29;32.07;;;25.90;;
3159;SDS011;1591;51.486;7.146;2022-08-19T09:19:01;34.80;;;27.27;;
3159;SDS011;1591;51.486;7.146;2022-08-19T09:21:32;40.13;;;29.60;;
3159;SDS011;1591;51.486;7.146;2022-08-19T09:23:59;33.53;;;26.93;;
3159;SDS011;1591;51.486;7.146;2022-08-19T09:26:28;35.80;;;27.47;;
3159;SDS011;1591;51.486;7.146;2022-08-19T09:28:57;39.03;;;26.73;;
3159;SDS011;1591;51.486;7.146;2022-08-19T09:31:25;40.77;;;27.97;;
3159;SDS011;1591;51.486;7.146;2022-08-19T09:33:54;42.20;;;30.40;;
3159;SDS011;1591;51.486;7.146;2022-08-19T09:36:23;35.53;;;27.20;;
3159;SDS011;1591;51.486;7.146;2022-08-19T09:38:54;34.10;;;24.20;;
3159;SDS011;1591;51.486;7.146;2022-08-19T09:41:23;35.90;;;24.67;;
3159;SDS011;1591;51.486;7.146;2022-08-19T09:43:54;33.90;;;24.87;;
3159;SDS011;1591;51.486;7.146;2022-08-19T09:46:24;28.00;;;23.23;;
3159;SDS011;1591;51.486;7.146;2022-08-19T09:48:57;26.93;;;21.30;;
3159;SDS011;1591;51.486;7.146;2022-08-19T09:51:25;25.80;;;19.60;;
3159;SDS011;1591;51.486;7.146;2022-08-19T09:53:55;22.03;;;19.40;;
3159;SDS011;1591;51.486;7.146;2022-08-19T09:56:27;24.80;;;19.20;;
3159;SDS011;1591;51.486;7.146;2022-08-19T09:58:58;24.27;;;18.27;;
3159;SDS011;1591;51.486;7.146;2022-08-19T10:01:28;23.43;;;17.53;;
3159;SDS011;1591;51.486;7.146;2022-08-19T10:03:58;20.80;;;16.90;;
3159;SDS011;1591;51.486;7.146;2022-08-19T10:06:28;23.40;;;15.40;;
3159;SDS011;1591;51.486;7.146;2022-08-19T10:08:58;23.27;;;14.10;;
3159;SDS011;1591;51.486;7.146;2022-08-19T10:11:26;16.00;;;13.20;;
3159;SDS011;1591;51.486;7.146;2022-08-19T10:13:54;19.60;;;12.40;;
3159;SDS011;1591;51.486;7.146;2022-08-19T10:16:22;15.57;;;12.57;;
3159;SDS011;1591;51.486;7.146;2022-08-19T10:18:50;20.60;;;13.10;;
3159;SDS011;1591;51.486;7.146;2022-08-19T10:21:19;15.00;;;12.93;;
3159;SDS011;1591;51.486;7.146;2022-08-19T10:23:49;16.60;;;12.43;;
3159;SDS011;1591;51.486;7.146;2022-08-19T10:26:21;15.43;;;12.50;;
3159;SDS011;1591;51.486;7.146;2022-08-19T10:28:51;18.00;;;13.87;;
3159;SDS011;1591;51.486;7.146;2022-08-19T10:31:21;16.63;;;12.47;;
3159;SDS011;1591;51.486;7.146;2022-08-19T10:33:52;16.13;;;12.07;;
3159;SDS011;1591;51.486;7.146;2022-08-19T10:36:25;24.00;;;13.73;;
3159;SDS011;1591;51.486;7.146;2022-08-19T10:38:56;20.90;;;12.60;;
3159;SDS011;1591;51.486;7.146;2022-08-19T10:41:27;19.10;;;13.50;;
3159;SDS011;1591;51.486;7.146;2022-08-19T10:43:57;15.33;;;12.43;;
3159;SDS011;1591;51.486;7.146;2022-08-19T10:46:28;14.93;;;13.10;;
3159;SDS011;1591;51.486;7.146;2022-08-19T10:48:57;16.47;;;14.77;;
3159;SDS011;1591;51.486;7.146;2022-08-19T10:51:25;23.57;;;17.83;;
3159;SDS011;1591;51.486;7.146;2022-08-19T10:54:09;23.00;;;16.53;;
3159;SDS011;1591;51.486;7.146;2022-08-19T10:56:37;21.70;;;18.33;;
3159;SDS011;1591;51.486;7.146;2022-08-19T10:59:19;21.17;;;16.73;;
3159;SDS011;1591;51.486;7.146;2022-08-19T11:01:50;25.30;;;18.13;;
3159;SDS011;1591;51.486;7.146;2022-08-19T11:04:18;20.70;;;18.00;;
3159;SDS011;1591;51.486;7.146;2022-08-19T11:06:45;21.77;;;19.17;;
3159;SDS011;1591;51.486;7.146;2022-08-19T11:09:15;20.97;;;17.60;;
3159;SDS011;1591;51.486;7.146;2022-08-19T11:11:43;23.10;;;18.97;;
3159;SDS011;1591;51.486;7.146;2022-08-19T11:14:14;23.53;;;17.87;;
3159;SDS011;1591;51.486;7.146;2022-08-19T11:16:45;19.53;;;17.57;;
3159;SDS011;1591;51.486;7.146;2022-08-19T11:19:14;18.63;;;16.10;;
3159;SDS011;1591;51.486;7.146;2022-08-19T11:21:45;21.33;;;16.30;;
3159;SDS011;1591;51.486;7.146;2022-08-19T11:24:15;22.30;;;16.77;;
3159;SDS011;1591;51.486;7.146;2022-08-19T11:26:46;20.20;;;17.00;;
3159;SDS011;1591;51.486;7.146;2022-08-19T11:29:18;19.73;;;17.53;;
3159;SDS011;1591;51.486;7.146;2022-08-19T11:31:48;21.70;;;17.50;;
3159;SDS011;1591;51.486;7.146;2022-08-19T11:34:18;20.20;;;18.07;;
3159;SDS011;1591;51.486;7.146;2022-08-19T11:36:48;19.57;;;16.37;;
3159;SDS011;1591;51.486;7.146;2022-08-19T11:39:17;17.70;;;13.93;;
3159;SDS011;1591;51.486;7.146;2022-08-19T11:41:46;18.93;;;16.10;;
3159;SDS011;1591;51.486;7.146;2022-08-19T11:44:14;17.53;;;15.67;;
3159;SDS011;1591;51.486;7.146;2022-08-19T11:46:42;18.83;;;16.10;;
3159;SDS011;1591;51.486;7.146;2022-08-19T11:49:12;17.03;;;13.90;;
3159;SDS011;1591;51.486;7.146;2022-08-19T11:51:42;14.07;;;12.50;;
3159;SDS011;1591;51.486;7.146;2022-08-19T11:54:09;17.97;;;10.83;;
3159;SDS011;1591;51.486;7.146;2022-08-19T11:56:38;12.27;;;10.97;;
3159;SDS011;1591;51.486;7.146;2022-08-19T11:59:06;16.93;;;13.53;;
3159;SDS011;1591;51.486;7.146;2022-08-19T12:01:33;15.73;;;14.13;;
3159;SDS011;1591;51.486;7.146;2022-08-19T12:04:01;14.83;;;11.80;;
3159;SDS011;1591;51.486;7.146;2022-08-19T12:06:31;15.13;;;11.57;;
3159;SDS011;1591;51.486;7.146;2022-08-19T12:09:03;13.00;;;11.70;;
3159;SDS011;1591;51.486;7.146;2022-08-19T12:11:33;12.03;;;10.83;;
3159;SDS011;1591;51.486;7.146;2022-08-19T12:14:02;11.90;;;10.70;;
3159;SDS011;1591;51.486;7.146;2022-08-19T12:16:30;11.23;;;10.10;;
3159;SDS011;1591;51.486;7.146;2022-08-19T12:18:58;10.27;;;9.27;;
3159;SDS011;1591;51.486;7.146;2022-08-19T12:21:29;10.10;;;9.20;;
3159;SDS011;1591;51.486;7.146;2022-08-19T12:23:58;10.53;;;9.10;;
3159;SDS011;1591;51.486;7.146;2022-08-19T12:26:29;8.27;;;7.50;;
3159;SDS011;1591;51.486;7.146;2022-08-19T12:28:57;9.10;;;8.00;;
3159;SDS011;1591;51.486;7.146;2022-08-19T12:31:25;8.13;;;7.30;;
3159;SDS011;1591;51.486;7.146;2022-08-19T12:33:54;10.03;;;7.57;;
3159;SDS011;1591;51.486;7.146;2022-08-19T12:36:21;9.67;;;7.53;;
3159;SDS011;1591;51.486;7.146;2022-08-19T12:38:49;12.33;;;7.77;;
3159;SDS011;1591;51.486;7.146;2022-08-19T12:41:21;9.70;;;7.83;;
3159;SDS011;1591;51.486;7.146;2022-08-19T12:43:49;11.80;;;7.37;;
3159;SDS011;1591;51.486;7.146;2022-08-19T12:46:16;10.30;;;7.50;;
3159;SDS011;1591;51.486;7.146;2022-08-19T12:48:46;7.97;;;7.00;;
3159;SDS011;1591;51.486;7.146;2022-08-19T12:51:14;8.13;;;6.50;;
3159;SDS011;1591;51.486;7.146;2022-08-19T12:53:44;9.40;;;6.53;;
3159;SDS011;1591;51.486;7.146;2022-08-19T12:56:12;11.33;;;6.70;;
3159;SDS011;1591;51.486;7.146;2022-08-19T12:58:43;14.10;;;6.10;;
3159;SDS011;1591;51.486;7.146;2022-08-19T13:01:11;8.23;;;6.83;;
3159;SDS011;1591;51.486;7.146;2022-08-19T13:03:44;9.50;;;7.03;;
3159;SDS011;1591;51.486;7.146;2022-08-19T13:06:12;8.50;;;7.20;;
3159;SDS011;1591;51.486;7.146;2022-08-19T13:08:40;12.83;;;6.80;;
3159;SDS011;1591;51.486;7.146;2022-08-19T13:11:08;7.50;;;6.80;;
3159;SDS011;1591;51.486;7.146;2022-08-19T13:13:41;10.10;;;8.50;;
3159;SDS011;1591;51.486;7.146;2022-08-19T13:16:12;8.87;;;8.07;;
3159;SDS011;1591;51.486;7.146;2022-08-19T13:18:41;8.20;;;7.23;;
3159;SDS011;1591;51.486;7.146;2022-08-19T13:21:11;8.23;;;7.17;;
3159;SDS011;1591;51.486;7.146;2022-08-19T13:23:40;7.60;;;6.80;;
3159;SDS011;1591;51.486;7.146;2022-08-19T13:26:07;7.20;;;6.23;;
3159;SDS011;1591;51.486;7.146;2022-08-19T13:28:36;7.43;;;6.20;;
3159;SDS011;1591;51.486;7.146;2022-08-19T13:31:23;7.80;;;7.00;;
3159;SDS011;1591;51.486;7.146;2022-08-19T13:34:13;9.40;;;8.50;;
3159;SDS011;1591;51.486;7.146;2022-08-19T13:36:43;7.57;;;6.97;;
3159;SDS011;1591;51.486;7.146;2022-08-19T13:39:10;8.90;;;7.90;;
3159;SDS011;1591;51.486;7.146;2022-08-19T13:41:42;6.40;;;5.70;;
3159;SDS011;1591;51.486;7.146;2022-08-19T13:44:14;7.30;;;6.10;;
3159;SDS011;1591;51.486;7.146;2022-08-19T13:46:44;10.83;;;9.80;;
3159;SDS011;1591;51.486;7.146;2022-08-19T13:49:12;7.03;;;6.43;;
3159;SDS011;1591;51.486;7.146;2022-08-19T13:51:40;9.40;;;8.60;;
3159;SDS011;1591;51.486;7.146;2022-08-19T13:54:09;16.53;;;10.57;;
3159;SDS011;1591;51.486;7.146;2022-08-19T13:56:39;9.53;;;7.90;;
3159;SDS011;1591;51.486;7.146;2022-08-19T13:59:08;18.80;;;8.23;;
3159;SDS011;1591;51.486;7.146;2022-08-19T14:01:37;9.33;;;7.13;;
3159;SDS011;1591;51.486;7.146;2022-08-19T14:04:06;11.10;;;6.47;;
3159;SDS011;1591;51.486;7.146;2022-08-19T14:06:34;6.77;;;6.07;;
3159;SDS011;1591;51.486;7.146;2022-08-19T14:09:02;9.10;;;5.87;;
3159;SDS011;1591;51.486;7.146;2022-08-19T14:11:30;11.00;;;5.70;;
3159;SDS011;1591;51.486;7.146;2022-08-19T14:13:57;10.67;;;5.13;;
3159;SDS011;1591;51.486;7.146;2022-08-19T14:16:26;6.33;;;5.77;;
3159;SDS011;1591;51.486;7.146;2022-08-19T14:18:55;9.07;;;5.37;;
3159;SDS011;1591;51.486;7.146;2022-08-19T14:21:24;12.23;;;5.27;;
3159;SDS011;1591;51.486;7.146;2022-08-19T14:23:53;9.00;;;5.17;;
3159;SDS011;1591;51.486;7.146;2022-08-19T14:26:22;13.80;;;5.70;;
3159;SDS011;1591;51.486;7.146;2022-08-19T14:28:50;7.40;;;4.93;;
3159;SDS011;1591;51.486;7.146;2022-08-19T14:31:22;6.67;;;5.53;;
3159;SDS011;1591;51.486;7.146;2022-08-19T14:33:50;11.00;;;4.90;;
3159;SDS011;1591;51.486;7.146;2022-08-19T14:36:17;7.30;;;5.13;;
3159;SDS011;1591;51.486;7.146;2022-08-19T14:38:49;7.63;;;5.20;;
3159;SDS011;1591;51.486;7.146;2022-08-19T14:41:17;5.80;;;5.30;;
3159;SDS011;1591;51.486;7.146;2022-08-19T14:43:48;8.20;;;5.90;;
3159;SDS011;1591;51.486;7.146;2022-08-19T14:46:18;14.83;;;6.20;;
3159;SDS011;1591;51.486;7.146;2022-08-19T14:48:50;7.10;;;5.80;;
3159;SDS011;1591;51.486;7.146;2022-08-19T14:51:18;6.53;;;5.30;;
3159;SDS011;1591;51.486;7.146;2022-08-19T14:53:46;6.60;;;5.50;;
3159;SDS011;1591;51.486;7.146;2022-08-19T14:56:16;8.10;;;5.13;;
3159;SDS011;1591;51.486;7.146;2022-08-19T14:58:48;9.73;;;5.47;;
3159;SDS011;1591;51.486;7.146;2022-08-19T15:01:16;8.27;;;5.60;;
3159;SDS011;1591;51.486;7.146;2022-08-19T15:03:45;9.70;;;5.53;;
3159;SDS011;1591;51.486;7.146;2022-08-19T15:06:14;15.80;;;5.23;;
3159;SDS011;1591;51.486;7.146;2022-08-19T15:08:42;10.50;;;6.30;;
3159;SDS011;1591;51.486;7.146;2022-08-19T15:11:10;8.03;;;5.80;;
3159;SDS011;1591;51.486;7.146;2022-08-19T15:13:44;8.03;;;5.70;;